Terminal Aerodrome Forecast
Issued by NWS

Home | Current Version | Previous Version | Text Only | Print | Product List | Glossary On
Versions: 1 2 3 4 5 6 7 8 9 10 11 12 13
000
FTUS46 KSEW 290500
TAFCLM
TAF
KCLM 290520Z 2906/3006 30005KT P6SM VCFG SKC
      TEMPO 2910/2914 2SM BR SCT002
     FM291800 33008KT P6SM SKC=

USA.gov is the U.S. government's official web portal to all federal, state and local government web resources and services.